Photometre #642[NE_1.2] Dushanbe AOT

File : 20200924_642.hum

24/09/2020,02:00:39,TEMP=13.0,BA=5.20,STAT.A=4.5,ExtBa=13.56
24/09/2020,02:03:56,TEMP=13.3,BA=5.20,STAT.A=4.5,ExtBa=13.56
24/09/2020,02:07:47,TEMP=13.5,BA=5.20,STAT.A=4.5,ExtBa=13.56
24/09/2020,02:12:21,TEMP=13.8,BA=5.24,STAT.A=4.5,ExtBa=13.56
24/09/2020,02:17:51,TEMP=14.1,BA=5.24,STAT.A=4.5,ExtBa=13.56
24/09/2020,02:24:38,TEMP=14.5,BA=5.28,STAT.A=4.5,ExtBa=13.56
24/09/2020,02:33:11,TEMP=15.1,BA=5.36,STAT.B=4.5,ExtBa=13.56
24/09/2020,02:42:30,TEMP=16.1,BA=5.16,STAT.A=4.5,ExtBa=13.57
24/09/2020,02:44:23,TEMP=16.4,BA=5.16,STAT.A=4.5,ExtBa=13.57
24/09/2020,02:47:01,TEMP=16.6,BA=5.16,STAT.A=4.5,ExtBa=13.57
24/09/2020,02:52:53,TEMP=16.8,BA=5.40,STAT.A=4.5,ExtBa=13.58
24/09/2020,02:59:36,TEMP=17.4,BA=5.40,STAT.C=4.5,ExtBa=13.63
24/09/2020,03:13:52,TEMP=18.6,BA=5.20,STAT.A=4.5,ExtBa=13.60
24/09/2020,03:16:36,TEMP=18.8,BA=5.20,STAT.A=4.5,ExtBa=13.61
24/09/2020,03:27:36,TEMP=19.2,BA=5.44,STAT.A=5.0,ExtBa=13.81
24/09/2020,03:41:04,TEMP=20.1,BA=5.44,STAT.A=5.0,ExtBa=14.04
24/09/2020,03:58:00,TEMP=21.4,BA=5.44,STAT.B=5.0,ExtBa=14.17
24/09/2020,04:16:57,TEMP=22.4,BA=5.36,STAT.F,ExtBa=14.15
24/09/2020,04:31:55,TEMP=23.2,BA=5.20,STAT.D=5.0,ExtBa=13.76
24/09/2020,04:46:56,TEMP=23.9,BA=5.28,STAT.D=5.0,ExtBa=14.22
24/09/2020,05:01:56,TEMP=24.5,BA=5.36,STAT.D=5.5,ExtBa=14.24
24/09/2020,05:16:57,TEMP=25.3,BA=5.36,STAT.F,ExtBa=14.21
24/09/2020,05:31:56,TEMP=26.2,BA=5.20,STAT.D=5.5,ExtBa=13.81
24/09/2020,05:46:56,TEMP=26.8,BA=5.36,STAT.D=5.5,ExtBa=14.18
24/09/2020,06:01:56,TEMP=27.3,BA=5.36,STAT.D=5.5,ExtBa=14.15
24/09/2020,06:16:58,TEMP=28.0,BA=5.36,STAT.F,ExtBa=14.12
24/09/2020,06:32:14,TEMP=28.6,BA=5.24,STAT.D=5.5,ExtBa=13.73
24/09/2020,06:46:56,TEMP=28.6,BA=5.32,STAT.D=5.5,ExtBa=14.13
24/09/2020,07:01:56,TEMP=28.9,BA=5.36,STAT.D=5.5,ExtBa=14.11
24/09/2020,07:16:58,TEMP=29.2,BA=5.36,STAT.F,ExtBa=14.09
24/09/2020,07:31:56,TEMP=29.5,BA=5.36,STAT.D=6.0,ExtBa=14.12
24/09/2020,07:46:56,TEMP=29.9,BA=5.36,STAT.D=6.0,ExtBa=14.08
24/09/2020,08:01:56,TEMP=30.0,BA=5.36,STAT.D=6.0,ExtBa=14.05
24/09/2020,08:16:58,TEMP=29.8,BA=5.36,STAT.F,ExtBa=14.06
24/09/2020,08:31:56,TEMP=30.2,BA=5.28,STAT.D=5.5,ExtBa=13.81
24/09/2020,08:46:56,TEMP=30.1,BA=5.36,STAT.D=6.0,ExtBa=14.06
24/09/2020,09:01:56,TEMP=30.3,BA=5.36,STAT.D=6.0,ExtBa=14.05
24/09/2020,09:16:57,TEMP=31.1,BA=5.36,STAT.F,ExtBa=14.02
24/09/2020,09:31:55,TEMP=31.0,BA=5.28,STAT.D=6.0,ExtBa=13.72
24/09/2020,09:46:55,TEMP=30.8,BA=5.36,STAT.D=6.0,ExtBa=14.01
24/09/2020,10:01:55,TEMP=30.7,BA=5.36,STAT.D=6.0,ExtBa=13.99
24/09/2020,10:16:57,TEMP=30.7,BA=5.36,STAT.F,ExtBa=13.96
24/09/2020,10:35:54,TEMP=30.4,BA=5.28,STAT.B=6.0,ExtBa=13.80
24/09/2020,10:52:50,TEMP=29.8,BA=5.36,STAT.A=6.0,ExtBa=13.86
24/09/2020,11:06:16,TEMP=29.8,BA=5.36,STAT.A=5.5,ExtBa=13.85
24/09/2020,11:17:16,TEMP=29.5,BA=5.36,STAT.A=5.5,ExtBa=13.80
24/09/2020,11:26:27,TEMP=29.3,BA=5.36,STAT.A=5.5,ExtBa=13.74
24/09/2020,11:34:16,TEMP=29.0,BA=5.36,STAT.C=5.5,ExtBa=13.66
24/09/2020,11:48:39,TEMP=28.4,BA=5.28,STAT.A=5.5,ExtBa=13.56
24/09/2020,11:50:39,TEMP=28.4,BA=5.28,STAT.A=5.5,ExtBa=13.56
24/09/2020,11:52:34,TEMP=28.4,BA=5.28,STAT.A=5.5,ExtBa=13.56
24/09/2020,11:56:35,TEMP=28.0,BA=5.28,STAT.A=5.5,ExtBa=13.56
24/09/2020,12:00:41,TEMP=27.8,BA=5.36,STAT.B=5.5,ExtBa=13.56
24/09/2020,12:09:46,TEMP=27.5,BA=5.36,STAT.A=5.5,ExtBa=13.55
24/09/2020,12:16:16,TEMP=27.1,BA=5.28,STAT.A=5.5,ExtBa=13.55
24/09/2020,12:21:31,TEMP=26.9,BA=5.36,STAT.A=5.5,ExtBa=13.55
24/09/2020,12:26:04,TEMP=26.7,BA=5.36,STAT.A=5.5,ExtBa=13.55
24/09/2020,12:29:54,TEMP=26.6,BA=5.36,STAT.A=5.5,ExtBa=13.55
24/09/2020,12:33:12,TEMP=26.4,BA=5.24,STAT.A=5.5,ExtBa=13.55